Kezdőlap
METAR-TAF:

METAR-TAF

Repülőterek :

Irkutszk, Oroszország

földrajzi szélesség: 52-16N, földrajzi hosszúság: 104-19E, magasság: 513 m

Jelenlegi meteorológiai megfigyelések

A jelentés 15 perccel ezelõtt készült, 17:00 UTC
Kelet-északkeleti szél 4 kt
Hőmérséklet 10°C
Páratartalom 100%
Légköri nyomás 1008 hPa
Látótávolság 10 km, vagy több
felhőtlen 1500 m magasságban, és nincs gomolyfelhõ

METAR: UIII 171700Z 07002MPS CAVOK 10/10 Q1008 R12/CLRD60 NOSIG RMK QFE714/0952

Idő: 01:15 (17:15 UTC)

Előrejelzés

A jelentés 3 órával és 15 perccel ezelõtt készült, 14:00 UTC
Az előrejelzés 17-én 15 óra UTC és 18-én 15 óra UTC között érvényes
Különbözõ irányokból fújó szél 2 kt
Látótávolság 10 km, vagy több
18-én 08 óra UTC és 18-én 09 óra UTC között fokozatosan kialakuló
Szórványos felhőzet 2000 lábon, Cumulonimbus.

TAF: UIII 171400Z 1715/1815 VRB01MPS 9999 NSC BECMG 1808/1809 SCT020CB

Meteorológiai megfigyelések és előrejelzések több, mint 4000 repülőtéren (METAR és TAF jelentéseket).

A térképen piros és sárga pontok jelzik az elérhető meteorológiai állomásokat.

Mozgassa az egeret a pont fölött, hogy megjelenjen az állomás neve.

Azután kattintson az időjárási megfigyelések és előrejelzések megtekintéséhez.

A térkép megváltoztatása: kattintson a fekete keresztel jelölt zöld gombra ráközelítéshez, a vonallal jelölt zöld gombra távolításhoz, vagy a zöld nyilakra a szomszédos térképek eléréséhez.


METAR-TAF: